^^
Saratoga-Weather Station Historical Data
Daily Summary for April 17, 2021 Units:  Metric    English   Both
Daily Weekly Monthly Yearly Custom
  High: Low: Average:
Temperature: 32.8 °C 17.2 °C 25.4 °C
Dew Point: 21.9 °C 15.2 °C 18.1 °C
Humidity: 90% 45% 66%
Wind Speed: 13km/h 0km/h 1.7km/h
Wind Gust: 17.7km/h - -
Wind- - SSW
Pressure: 1010.8 hPa 1009.1 hPa -
Precipitation: 0.0 mm    
Historical Graphs
 
 
Tabular Data for April 17, 2021
Time Temperature Dew Point Pressure Wind Wind Speed Wind Gust Humidity Rainfall Rate (Hourly) solar
00:02 21.2 °C 16.2 °C 1010.2 hPa Calm     73% 0.0 mm 0 W/m2
00:07 21.1 °C 16.1 °C 1010.2 hPa Calm     73% 0.0 mm 0 W/m2
00:12 20.9 °C 16.1 °C 1010.2 hPa Calm     74% 0.0 mm 0 W/m2
00:17 20.8 °C 16 °C 1010.2 hPa Calm     74% 0.0 mm 0 W/m2
00:22 20.7 °C 16.1 °C 1010.2 hPa Calm     75% 0.0 mm 0 W/m2
00:27 20.6 °C 16.2 °C 1010.2 hPa Calm     76% 0.0 mm 0 W/m2
00:32 20.5 °C 16.3 °C 1010.2 hPa Calm     77% 0.0 mm 0 W/m2
00:37 20.4 °C 16.4 °C 1010.2 hPa Calm     78% 0.0 mm 0 W/m2
00:42 20.3 °C 16.3 °C 1010.2 hPa Calm     78% 0.0 mm 0 W/m2
00:47 20.3 °C 16.3 °C 1010.2 hPa Calm     78% 0.0 mm 0 W/m2
00:52 20.2 °C 16.4 °C 1009.8 hPa Calm     79% 0.0 mm 0 W/m2
00:57 20.1 °C 16.3 °C 1009.8 hPa Calm     79% 0.0 mm 0 W/m2
01:02 20 °C 16.2 °C 1009.8 hPa Calm     79% 0.0 mm 0 W/m2
01:07 19.8 °C 16.1 °C 1009.8 hPa Calm     79% 0.0 mm 0 W/m2
01:12 19.8 °C 16.2 °C 1009.8 hPa Calm     80% 0.0 mm 0 W/m2
01:17 19.8 °C 16.2 °C 1009.8 hPa Calm     80% 0.0 mm 0 W/m2
01:22 19.7 °C 16.3 °C 1009.8 hPa Calm     81% 0.0 mm 0 W/m2
01:27 19.6 °C 16.2 °C 1009.8 hPa Calm     81% 0.0 mm 0 W/m2
01:32 19.6 °C 16.2 °C 1009.8 hPa Calm     81% 0.0 mm 0 W/m2
01:37 19.4 °C 16.1 °C 1009.5 hPa Calm     81% 0.0 mm 0 W/m2
01:42 19.3 °C 16.1 °C 1009.5 hPa Calm     82% 0.0 mm 0 W/m2
01:47 19.3 °C 16.1 °C 1009.5 hPa Calm     82% 0.0 mm 0 W/m2
01:53 19.2 °C 16.2 °C 1009.5 hPa Calm     83% 0.0 mm 0 W/m2
01:58 19.2 °C 16.2 °C 1009.1 hPa Calm     83% 0.0 mm 0 W/m2
02:03 19.1 °C 16.1 °C 1009.1 hPa Calm     83% 0.0 mm 0 W/m2
02:08 19.1 °C 16.1 °C 1009.1 hPa Calm     83% 0.0 mm 0 W/m2
02:13 19 °C 16.2 °C 1009.1 hPa Calm     84% 0.0 mm 0 W/m2
02:18 19 °C 16.2 °C 1009.1 hPa Calm     84% 0.0 mm 0 W/m2
02:23 18.9 °C 16.1 °C 1009.1 hPa Calm   1.6 km/h 84% 0.0 mm 0 W/m2
02:28 18.9 °C 16.1 °C 1009.1 hPa Calm     84% 0.0 mm 0 W/m2
02:33 18.9 °C 16.1 °C 1009.1 hPa Calm   1.6 km/h 84% 0.0 mm 0 W/m2
02:38 18.8 °C 16 °C 1009.1 hPa Calm     84% 0.0 mm 0 W/m2
02:43 18.8 °C 16 °C 1009.1 hPa Calm     84% 0.0 mm 0 W/m2
02:48 18.7 °C 15.9 °C 1009.1 hPa Calm     84% 0.0 mm 0 W/m2
02:53 18.7 °C 15.9 °C 1009.1 hPa Calm     84% 0.0 mm 0 W/m2
02:58 18.7 °C 16.1 °C 1009.1 hPa Calm     85% 0.0 mm 0 W/m2
03:03 18.7 °C 16.1 °C 1009.1 hPa Calm     85% 0.0 mm 0 W/m2
03:08 18.6 °C 16 °C 1009.1 hPa Calm     85% 0.0 mm 0 W/m2
03:13 18.6 °C 16.2 °C 1009.1 hPa Calm     86% 0.0 mm 0 W/m2
03:18 18.6 °C 16.2 °C 1009.1 hPa Calm     86% 0.0 mm 0 W/m2
03:23 18.5 °C 15.9 °C 1009.1 hPa Calm     85% 0.0 mm 0 W/m2
03:28 18.4 °C 16 °C 1009.5 hPa Calm     86% 0.0 mm 0 W/m2
03:33 18.4 °C 16 °C 1009.5 hPa Calm     86% 0.0 mm 0 W/m2
03:38 18.4 °C 16 °C 1009.8 hPa Calm   1.6 km/h 86% 0.0 mm 0 W/m2
03:43 18.3 °C 15.9 °C 1009.8 hPa Calm     86% 0.0 mm 0 W/m2
03:48 18.3 °C 15.9 °C 1009.5 hPa Calm     86% 0.0 mm 0 W/m2
03:53 18.2 °C 15.6 °C 1009.5 hPa Calm     85% 0.0 mm 0 W/m2
03:58 18.2 °C 15.6 °C 1009.8 hPa Calm     85% 0.0 mm 0 W/m2
04:03 18.1 °C 15.5 °C 1009.8 hPa Calm     85% 0.0 mm 0 W/m2
04:08 18 °C 15.4 °C 1009.8 hPa Calm     85% 0.0 mm 0 W/m2
04:13 17.9 °C 15.3 °C 1009.8 hPa Calm     85% 0.0 mm 0 W/m2
04:18 17.9 °C 15.3 °C 1009.8 hPa Calm     85% 0.0 mm 0 W/m2
04:23 17.9 °C 15.2 °C 1009.8 hPa Calm     84% 0.0 mm 0 W/m2
04:28 17.9 °C 15.2 °C 1009.8 hPa Calm     84% 0.0 mm 0 W/m2
04:33 17.9 °C 15.3 °C 1009.8 hPa Calm     85% 0.0 mm 0 W/m2
04:38 17.9 °C 15.5 °C 1009.8 hPa Calm     86% 0.0 mm 0 W/m2
04:43 17.9 °C 15.5 °C 1009.8 hPa Calm     86% 0.0 mm 0 W/m2
04:48 17.8 °C 15.4 °C 1009.5 hPa Calm     86% 0.0 mm 0 W/m2
04:53 17.8 °C 15.6 °C 1009.5 hPa Calm     87% 0.0 mm 0 W/m2
04:58 17.8 °C 15.6 °C 1009.5 hPa Calm     87% 0.0 mm 0 W/m2
05:03 17.7 °C 15.5 °C 1009.5 hPa Calm     87% 0.0 mm 0 W/m2
05:08 17.6 °C 15.4 °C 1009.5 hPa Calm     87% 0.0 mm 0 W/m2
05:13 17.6 °C 15.4 °C 1009.8 hPa Calm     87% 0.0 mm 0 W/m2
05:18 17.5 °C 15.3 °C 1009.8 hPa Calm     87% 0.0 mm 0 W/m2
05:23 17.4 °C 15.4 °C 1009.8 hPa Calm     88% 0.0 mm 0 W/m2
05:28 17.3 °C 15.3 °C 1009.5 hPa Calm     88% 0.0 mm 0 W/m2
05:33 17.3 °C 15.3 °C 1009.5 hPa Calm     88% 0.0 mm 0 W/m2
05:38 17.3 °C 15.5 °C 1009.5 hPa Calm     89% 0.0 mm 5 W/m2
05:43 17.2 °C 15.4 °C 1009.5 hPa Calm     89% 0.0 mm 9 W/m2
05:48 17.2 °C 15.4 °C 1009.5 hPa Calm     89% 0.0 mm 11 W/m2
05:53 17.2 °C 15.4 °C 1009.5 hPa Calm     89% 0.0 mm 11 W/m2
05:58 17.2 °C 15.4 °C 1009.5 hPa Calm     89% 0.0 mm 12 W/m2
06:03 17.2 °C 15.4 °C 1009.5 hPa Calm     89% 0.0 mm 16 W/m2
06:08 17.2 °C 15.5 °C 1009.5 hPa Calm     90% 0.0 mm 19 W/m2
06:13 17.3 °C 15.6 °C 1009.5 hPa Calm     90% 0.0 mm 26 W/m2
06:18 17.3 °C 15.6 °C 1009.8 hPa Calm     90% 0.0 mm 40 W/m2
06:23 17.3 °C 15.6 °C 1009.8 hPa Calm     90% 0.0 mm 47 W/m2
06:28 17.6 °C 15.9 °C 1009.8 hPa Calm     90% 0.0 mm 65 W/m2
06:33 17.8 °C 16.1 °C 1009.8 hPa Calm   3.2 km/h 90% 0.0 mm 70 W/m2
06:38 18.1 °C 16.3 °C 1010.2 hPa Calm     89% 0.0 mm 69 W/m2
06:43 18.3 °C 16.3 °C 1010.2 hPa Calm   3.2 km/h 88% 0.0 mm 69 W/m2
06:48 18.6 °C 16.4 °C 1010.2 hPa Calm     87% 0.0 mm 72 W/m2
06:53 18.8 °C 16.4 °C 1010.2 hPa WSW 1.4 km/h 1.6 km/h 86% 0.0 mm 72 W/m2
06:58 19.1 °C 16.7 °C 1009.8 hPa SSE 3.2 km/h 3.2 km/h 86% 0.0 mm 77 W/m2
07:03 19.2 °C 16.4 °C 1009.8 hPa SE 1.4 km/h 1.6 km/h 84% 0.0 mm 88 W/m2
07:08 19.4 °C 16.4 °C 1009.8 hPa ENE 1.4 km/h 3.2 km/h 83% 0.0 mm 77 W/m2
07:13 19.5 °C 16.5 °C 1009.8 hPa Calm   3.2 km/h 83% 0.0 mm 70 W/m2
07:18 19.6 °C 16.6 °C 1009.8 hPa East 1.4 km/h 3.2 km/h 83% 0.0 mm 83 W/m2
07:23 19.7 °C 16.5 °C 1010.2 hPa Calm     82% 0.0 mm 70 W/m2
07:28 19.8 °C 16.6 °C 1010.5 hPa Calm   1.6 km/h 82% 0.0 mm 63 W/m2
07:33 19.9 °C 16.5 °C 1010.5 hPa Calm   3.2 km/h 81% 0.0 mm 65 W/m2
07:38 20 °C 16.6 °C 1010.2 hPa Calm   3.2 km/h 81% 0.0 mm 135 W/m2
07:43 20.1 °C 16.5 °C 1010.2 hPa NE 3.2 km/h 3.2 km/h 80% 0.0 mm 204 W/m2
07:48 20.3 °C 16.7 °C 1010.2 hPa Calm     80% 0.0 mm 204 W/m2
07:54 20.8 °C 17 °C 1010.2 hPa ENE 3.2 km/h 4.8 km/h 79% 0.0 mm 199 W/m2
07:59 21.2 °C 17 °C 1010.2 hPa ENE 1.4 km/h 3.2 km/h 77% 0.0 mm 207 W/m2
08:04 21.6 °C 17.2 °C 1010.2 hPa East 1.4 km/h 4.8 km/h 76% 0.0 mm 239 W/m2
08:09 21.8 °C 17.4 °C 1010.2 hPa Calm   3.2 km/h 76% 0.0 mm 251 W/m2
08:14 22.1 °C 17.2 °C 1010.5 hPa ENE 4.7 km/h 4.8 km/h 74% 0.0 mm 216 W/m2
08:19 22.3 °C 17.4 °C 1010.5 hPa ENE 1.4 km/h 3.2 km/h 74% 0.0 mm 127 W/m2
08:24 22.6 °C 17.5 °C 1010.5 hPa NNE 1.4 km/h 4.8 km/h 73% 0.0 mm 83 W/m2
08:29 22.8 °C 17.7 °C 1010.2 hPa East 1.4 km/h 4.8 km/h 73% 0.0 mm 81 W/m2
08:34 22.9 °C 17.6 °C 1010.2 hPa ENE 1.4 km/h 8 km/h 72% 0.0 mm 83 W/m2
08:39 23.2 °C 17.9 °C 1010.2 hPa NE 4.7 km/h 9.7 km/h 72% 0.0 mm 83 W/m2
08:44 23.2 °C 18.1 °C 1010.2 hPa NNE 3.2 km/h 4.8 km/h 73% 0.0 mm 83 W/m2
08:49 23.4 °C 18.1 °C 1010.2 hPa NE 3.2 km/h 9.7 km/h 72% 0.0 mm 84 W/m2
08:54 23.6 °C 18.3 °C 1010.5 hPa NE 3.2 km/h 6.4 km/h 72% 0.0 mm 88 W/m2
08:59 23.7 °C 18.4 °C 1010.2 hPa NE 3.2 km/h 3.2 km/h 72% 0.0 mm 88 W/m2
09:04 23.9 °C 18.5 °C 1010.5 hPa ENE 1.4 km/h 1.6 km/h 72% 0.0 mm 91 W/m2
09:09 24.1 °C 18.5 °C 1010.5 hPa Calm   4.8 km/h 71% 0.0 mm 93 W/m2
09:14 24.3 °C 18.2 °C 1010.5 hPa NE 3.2 km/h 8 km/h 69% 0.0 mm 127 W/m2
09:19 24.3 °C 18.2 °C 1010.5 hPa ENE 3.2 km/h 4.8 km/h 69% 0.0 mm 276 W/m2
09:24 24.6 °C 18.5 °C 1010.5 hPa NE 1.4 km/h 4.8 km/h 69% 0.0 mm 441 W/m2
09:29 24.8 °C 18.5 °C 1010.5 hPa NE 4.7 km/h 8 km/h 68% 0.0 mm 462 W/m2
09:34 24.9 °C 18.6 °C 1010.5 hPa NE 6.4 km/h 6.4 km/h 68% 0.0 mm 480 W/m2
09:39 25.2 °C 18.6 °C 1010.5 hPa East 3.2 km/h 8 km/h 67% 0.0 mm 496 W/m2
09:44 25.3 °C 18.7 °C 1010.5 hPa East 4.7 km/h 6.4 km/h 67% 0.0 mm 508 W/m2
09:49 25.4 °C 18.6 °C 1010.2 hPa East 1.4 km/h 4.8 km/h 66% 0.0 mm 522 W/m2
09:54 25.6 °C 18.8 °C 1010.5 hPa ESE 3.2 km/h 6.4 km/h 66% 0.0 mm 534 W/m2
09:59 25.9 °C 18.8 °C 1010.5 hPa ESE 4.7 km/h 11.3 km/h 65% 0.0 mm 543 W/m2
10:04 26.2 °C 19.1 °C 1010.2 hPa ENE 1.4 km/h 4.8 km/h 65% 0.0 mm 559 W/m2
10:09 26.4 °C 19 °C 1010.5 hPa East 3.2 km/h 11.3 km/h 64% 0.0 mm 499 W/m2
10:14 26.8 °C 19.2 °C 1010.5 hPa NW 3.2 km/h 4.8 km/h 63% 0.0 mm 178 W/m2
10:19 27.1 °C 19.4 °C 1010.5 hPa Calm   6.4 km/h 63% 0.0 mm 763 W/m2
10:24 27.4 °C 19.2 °C 1010.5 hPa NE 4.7 km/h 4.8 km/h 61% 0.0 mm 628 W/m2
10:29 27.6 °C 19.7 °C 1010.5 hPa WNW 3.2 km/h 3.2 km/h 62% 0.0 mm 619 W/m2
10:34 27.4 °C 19.5 °C 1010.5 hPa Calm   6.4 km/h 62% 0.0 mm 846 W/m2
10:39 27.4 °C 19.2 °C 1010.5 hPa South 3.2 km/h 8 km/h 61% 0.0 mm 499 W/m2
10:44 27.3 °C 19.1 °C 1010.5 hPa ESE 9.7 km/h 9.7 km/h 61% 0.0 mm 680 W/m2
10:49 27.4 °C 18.7 °C 1010.5 hPa West 3.2 km/h 4.8 km/h 59% 0.0 mm 677 W/m2
10:54 27.5 °C 19 °C 1010.5 hPa Calm   1.6 km/h 60% 0.0 mm 677 W/m2
10:59 28.1 °C 19.6 °C 1010.5 hPa ESE 1.4 km/h 4.8 km/h 60% 0.0 mm 684 W/m2
11:04 28.7 °C 19.6 °C 1010.5 hPa Calm   3.2 km/h 58% 0.0 mm 707 W/m2
11:09 29.1 °C 20 °C 1010.5 hPa NNW 1.4 km/h 4.8 km/h 58% 0.0 mm 708 W/m2
11:14 29.3 °C 20.2 °C 1010.5 hPa SW 1.4 km/h 3.2 km/h 58% 0.0 mm 712 W/m2
11:19 29.3 °C 19.9 °C 1010.5 hPa ENE 3.2 km/h 3.2 km/h 57% 0.0 mm 728 W/m2
11:24 29.2 °C 19.8 °C 1010.5 hPa West 4.7 km/h 11.3 km/h 57% 0.0 mm 744 W/m2
11:29 29.1 °C 20 °C 1010.5 hPa NNW 3.2 km/h 3.2 km/h 58% 0.0 mm 738 W/m2
11:34 29.2 °C 20.1 °C 1010.5 hPa NE 1.4 km/h 4.8 km/h 58% 0.0 mm 752 W/m2
11:39 29.2 °C 19.8 °C 1010.5 hPa East 1.4 km/h 4.8 km/h 57% 0.0 mm 765 W/m2
11:44 29.2 °C 19.8 °C 1010.5 hPa Calm   6.4 km/h 57% 0.0 mm 772 W/m2
11:49 29.2 °C 19.5 °C 1010.5 hPa WNW 9.7 km/h 11.3 km/h 56% 0.0 mm 784 W/m2
11:54 29.3 °C 19.3 °C 1010.5 hPa WNW 3.2 km/h 6.4 km/h 55% 0.0 mm 791 W/m2
11:59 29.5 °C 18.6 °C 1010.8 hPa WNW 3.2 km/h 4.8 km/h 52% 0.0 mm 802 W/m2
12:04 29.7 °C 18.8 °C 1010.8 hPa NNE 4.7 km/h 8 km/h 52% 0.0 mm 805 W/m2
12:09 29.7 °C 18.8 °C 1010.8 hPa East 1.4 km/h 8 km/h 52% 0.0 mm 812 W/m2
12:14 29.7 °C 18.5 °C 1010.8 hPa North 6.4 km/h 6.4 km/h 51% 0.0 mm 807 W/m2
12:19 29.8 °C 18.3 °C 1010.8 hPa NNW 4.7 km/h 11.3 km/h 50% 0.0 mm 831 W/m2
12:24 29.7 °C 17.5 °C 1010.8 hPa NNW 1.4 km/h 8 km/h 48% 0.0 mm 826 W/m2
12:29 29.7 °C 18.2 °C 1010.8 hPa WSW 4.7 km/h 14.5 km/h 50% 0.0 mm 842 W/m2
12:34 29.7 °C 18.2 °C 1010.5 hPa WNW 4.7 km/h 12.9 km/h 50% 0.0 mm 849 W/m2
12:39 29.8 °C 18.6 °C 1010.5 hPa Calm   11.3 km/h 51% 0.0 mm 842 W/m2
12:44 30 °C 18.1 °C 1010.5 hPa West 13 km/h 16.1 km/h 49% 0.0 mm 847 W/m2
12:49 30 °C 18.4 °C 1010.5 hPa NW 7.9 km/h 11.3 km/h 50% 0.0 mm 846 W/m2
12:54 30 °C 18.8 °C 1010.5 hPa WNW 3.2 km/h 8 km/h 51% 0.0 mm 847 W/m2
12:59 30.1 °C 18.8 °C 1010.5 hPa SW 6.4 km/h 6.4 km/h 51% 0.0 mm 853 W/m2
13:04 30.3 °C 19 °C 1010.5 hPa NW 7.9 km/h 8 km/h 51% 0.0 mm 870 W/m2
13:09 30.4 °C 18.5 °C 1010.5 hPa NNW 13 km/h 14.5 km/h 49% 0.0 mm 870 W/m2
13:14 30.3 °C 18.4 °C 1010.5 hPa SSW 6.4 km/h 9.7 km/h 49% 0.0 mm 872 W/m2
13:19 30.1 °C 19.2 °C 1010.5 hPa NW 4.7 km/h 8 km/h 52% 0.0 mm 889 W/m2
13:24 30.1 °C 19.2 °C 1010.5 hPa Calm   4.8 km/h 52% 0.0 mm 872 W/m2
13:29 30.2 °C 18.9 °C 1010.5 hPa West 1.4 km/h 6.4 km/h 51% 0.0 mm 872 W/m2
13:34 30.3 °C 18.4 °C 1010.5 hPa WNW 4.7 km/h 12.9 km/h 49% 0.0 mm 874 W/m2
13:39 30.2 °C 18.6 °C 1010.5 hPa WNW 3.2 km/h 6.4 km/h 50% 0.0 mm 870 W/m2
13:44 30.5 °C 18.6 °C 1010.5 hPa WNW 4.7 km/h 12.9 km/h 49% 0.0 mm 847 W/m2
13:49 30.6 °C 18.7 °C 1010.5 hPa NE 6.4 km/h 6.4 km/h 49% 0.0 mm 847 W/m2
13:54 30.6 °C 19 °C 1010.5 hPa West 6.4 km/h 16.1 km/h 50% 0.0 mm 870 W/m2
13:59 30.6 °C 19.3 °C 1010.5 hPa WSW 6.4 km/h 12.9 km/h 51% 0.0 mm 888 W/m2
14:04 30.4 °C 18.8 °C 1010.5 hPa West 6.4 km/h 9.7 km/h 50% 0.0 mm 923 W/m2
14:09 30.4 °C 18.5 °C 1010.5 hPa West 9.7 km/h 14.5 km/h 49% 0.0 mm 942 W/m2
14:14 30.6 °C 19 °C 1010.5 hPa West 1.4 km/h 4.8 km/h 50% 0.0 mm 932 W/m2
14:19 30.9 °C 19.3 °C 1010.5 hPa WSW 1.4 km/h 14.5 km/h 50% 0.0 mm 902 W/m2
14:24 30.7 °C 19.1 °C 1010.5 hPa West 9.7 km/h 14.5 km/h 50% 0.0 mm 904 W/m2
14:29 30.6 °C 19 °C 1010.2 hPa WNW 13 km/h 14.5 km/h 50% 0.0 mm 886 W/m2
14:34 30.6 °C 18.7 °C 1010.2 hPa West 1.4 km/h 9.7 km/h 49% 0.0 mm 868 W/m2
14:39 30.7 °C 19.1 °C 1010.5 hPa SSE 1.4 km/h 4.8 km/h 50% 0.0 mm 870 W/m2
14:44 31.1 °C 18.8 °C 1010.2 hPa NW 3.2 km/h 9.7 km/h 48% 0.0 mm 886 W/m2
14:49 31.6 °C 19.2 °C 1010.2 hPa NNW 3.2 km/h 4.8 km/h 48% 0.0 mm 904 W/m2
14:54 31.4 °C 18.7 °C 1010.2 hPa WSW 4.7 km/h 11.3 km/h 47% 0.0 mm 896 W/m2
14:59 31.3 °C 17.9 °C 1010.2 hPa North 1.4 km/h 4.8 km/h 45% 0.0 mm 858 W/m2
15:04 31.2 °C 18.5 °C 1010.2 hPa WNW 1.4 km/h 3.2 km/h 47% 0.0 mm 847 W/m2
15:09 31.2 °C 17.9 °C 1010.2 hPa WNW 3.2 km/h 17.7 km/h 45% 0.0 mm 849 W/m2
15:14 31.2 °C 18.9 °C 1010.2 hPa SSW 3.2 km/h 4.8 km/h 48% 0.0 mm 847 W/m2
15:19 31.3 °C 18.6 °C 1010.2 hPa Calm   17.7 km/h 47% 0.0 mm 837 W/m2
15:24 31.4 °C 19.1 °C 1010.2 hPa ESE 9.7 km/h 11.3 km/h 48% 0.0 mm 838 W/m2
15:29 31.7 °C 19.3 °C 1009.8 hPa NE 4.7 km/h 4.8 km/h 48% 0.0 mm 837 W/m2
15:34 31.9 °C 18.8 °C 1010.2 hPa West 3.2 km/h 9.7 km/h 46% 0.0 mm 830 W/m2
15:39 31.7 °C 18.7 °C 1010.2 hPa West 4.7 km/h 8 km/h 46% 0.0 mm 823 W/m2
15:44 31.5 °C 18.5 °C 1009.8 hPa SSW 4.7 km/h 9.7 km/h 46% 0.0 mm 805 W/m2
15:49 31.6 °C 19.6 °C 1009.8 hPa North 1.4 km/h 4.8 km/h 49% 0.0 mm 807 W/m2
15:55 31.7 °C 18.7 °C 1010.2 hPa West 4.7 km/h 11.3 km/h 46% 0.0 mm 169 W/m2
16:00 31.4 °C 19.1 °C 1010.2 hPa WNW 1.4 km/h 3.2 km/h 48% 0.0 mm 826 W/m2
16:05 31.4 °C 19.1 °C 1010.2 hPa West 4.7 km/h 11.3 km/h 48% 0.0 mm 258 W/m2
16:10 31.3 °C 19 °C 1010.2 hPa WNW 1.4 km/h 4.8 km/h 48% 0.0 mm 229 W/m2
16:15 31.3 °C 19 °C 1010.2 hPa ENE 4.7 km/h 9.7 km/h 48% 0.0 mm 742 W/m2
16:20 31.7 °C 19.3 °C 1010.2 hPa ESE 4.7 km/h 4.8 km/h 48% 0.0 mm 663 W/m2
16:25 31.9 °C 18.8 °C 1009.8 hPa SE 1.4 km/h 6.4 km/h 46% 0.0 mm 543 W/m2
16:30 31.9 °C 20.2 °C 1009.8 hPa Calm   3.2 km/h 50% 0.0 mm 548 W/m2
16:35 32 °C 19.3 °C 1009.8 hPa Calm   4.8 km/h 47% 0.0 mm 635 W/m2
16:40 32.2 °C 19.5 °C 1009.8 hPa Calm   6.4 km/h 47% 0.0 mm 680 W/m2
16:45 32.3 °C 19.2 °C 1009.8 hPa South 1.4 km/h 9.7 km/h 46% 0.0 mm 721 W/m2
16:50 32.3 °C 18.8 °C 1009.8 hPa ESE 4.7 km/h 8 km/h 45% 0.0 mm 652 W/m2
16:55 32.3 °C 18.8 °C 1009.8 hPa South 1.4 km/h 4.8 km/h 45% 0.0 mm 548 W/m2
17:00 32.4 °C 18.9 °C 1009.8 hPa East 3.2 km/h 8 km/h 45% 0.0 mm 584 W/m2
17:05 32.7 °C 19.2 °C 1009.8 hPa SE 3.2 km/h 4.8 km/h 45% 0.0 mm 673 W/m2
17:10 32.5 °C 19 °C 1009.8 hPa West 3.2 km/h 9.7 km/h 45% 0.0 mm 647 W/m2
17:15 32.2 °C 18.8 °C 1009.5 hPa NW 4.7 km/h 8 km/h 45% 0.0 mm 606 W/m2
17:20 32.1 °C 19 °C 1009.8 hPa East 3.2 km/h 3.2 km/h 46% 0.0 mm 615 W/m2
17:25 32.3 °C 19.2 °C 1009.5 hPa WNW 4.7 km/h 12.9 km/h 46% 0.0 mm 629 W/m2
17:30 32.3 °C 19.5 °C 1009.5 hPa WNW 6.4 km/h 8 km/h 47% 0.0 mm 612 W/m2
17:35 32.5 °C 19.7 °C 1009.5 hPa NW 3.2 km/h 12.9 km/h 47% 0.0 mm 589 W/m2
17:40 32.6 °C 20.2 °C 1009.5 hPa WNW 3.2 km/h 4.8 km/h 48% 0.0 mm 570 W/m2
17:45 32.6 °C 19.8 °C 1009.5 hPa North 1.4 km/h 4.8 km/h 47% 0.0 mm 461 W/m2
17:50 32.4 °C 20 °C 1009.5 hPa Calm   3.2 km/h 48% 0.0 mm 494 W/m2
17:55 32.4 °C 20 °C 1009.5 hPa NW 1.4 km/h 3.2 km/h 48% 0.0 mm 545 W/m2
18:00 32.3 °C 19.9 °C 1009.5 hPa Calm   4.8 km/h 48% 0.0 mm 443 W/m2
18:05 32.2 °C 19.8 °C 1009.5 hPa East 4.7 km/h 4.8 km/h 48% 0.0 mm 265 W/m2
18:10 32.1 °C 19.7 °C 1009.5 hPa SSW 1.4 km/h 3.2 km/h 48% 0.0 mm 367 W/m2
18:15 32.2 °C 20.5 °C 1009.5 hPa Calm   1.6 km/h 50% 0.0 mm 482 W/m2
18:20 32.4 °C 20 °C 1009.5 hPa WNW 3.2 km/h 3.2 km/h 48% 0.0 mm 403 W/m2
18:25 32.8 °C 20.7 °C 1009.5 hPa West 1.4 km/h 3.2 km/h 49% 0.0 mm 404 W/m2
18:30 32.6 °C 19.8 °C 1009.5 hPa Calm   3.2 km/h 47% 0.0 mm 308 W/m2
18:35 32.4 °C 20.6 °C 1009.5 hPa Calm   4.8 km/h 50% 0.0 mm 278 W/m2
18:40 32.3 °C 20.2 °C 1009.5 hPa Calm   1.6 km/h 49% 0.0 mm 216 W/m2
18:45 32.3 °C 20.2 °C 1009.5 hPa ESE 3.2 km/h 3.2 km/h 49% 0.0 mm 195 W/m2
18:50 32.1 °C 20.4 °C 1009.5 hPa East 3.2 km/h 4.8 km/h 50% 0.0 mm 162 W/m2
18:55 31.9 °C 20.5 °C 1009.5 hPa Calm   3.2 km/h 51% 0.0 mm 295 W/m2
19:00 31.9 °C 20.2 °C 1009.5 hPa Calm   1.6 km/h 50% 0.0 mm 302 W/m2
19:05 32.1 °C 20.4 °C 1009.5 hPa ENE 4.7 km/h 4.8 km/h 50% 0.0 mm 297 W/m2
19:10 32 °C 20.3 °C 1009.5 hPa Calm   3.2 km/h 50% 0.0 mm 278 W/m2
19:15 32.1 °C 20.7 °C 1009.5 hPa SSE 3.2 km/h 11.3 km/h 51% 0.0 mm 221 W/m2
19:20 31.9 °C 19.9 °C 1009.5 hPa Calm   3.2 km/h 49% 0.0 mm 269 W/m2
19:25 31.9 °C 20.5 °C 1009.5 hPa Calm   11.3 km/h 51% 0.0 mm 255 W/m2
19:30 32 °C 20.3 °C 1009.5 hPa Calm   1.6 km/h 50% 0.0 mm 243 W/m2
19:35 32.2 °C 20.8 °C 1009.5 hPa Calm   1.6 km/h 51% 0.0 mm 221 W/m2
19:40 32.2 °C 20.5 °C 1009.5 hPa Calm     50% 0.0 mm 172 W/m2
19:45 32.2 °C 20.8 °C 1009.5 hPa Calm     51% 0.0 mm 121 W/m2
19:50 31.9 °C 21.7 °C 1009.5 hPa Calm   3.2 km/h 55% 0.0 mm 76 W/m2
19:55 31.6 °C 21.7 °C 1009.5 hPa WSW 1.4 km/h 3.2 km/h 56% 0.0 mm 76 W/m2
20:00 31.1 °C 21.9 °C 1009.8 hPa Calm   1.6 km/h 58% 0.0 mm 69 W/m2
20:05 30.7 °C 21.8 °C 1009.8 hPa WSW 1.4 km/h 1.6 km/h 59% 0.0 mm 63 W/m2
20:10 30.4 °C 21.5 °C 1009.8 hPa Calm   1.6 km/h 59% 0.0 mm 60 W/m2
20:15 30.1 °C 21.2 °C 1009.8 hPa WSW 1.4 km/h 3.2 km/h 59% 0.0 mm 84 W/m2
20:20 29.8 °C 20.9 °C 1009.8 hPa WSW 1.4 km/h 3.2 km/h 59% 0.0 mm 74 W/m2
20:25 29.5 °C 20.9 °C 1009.8 hPa Calm   3.2 km/h 60% 0.0 mm 63 W/m2
20:30 29.2 °C 20.9 °C 1009.8 hPa WSW 1.4 km/h 3.2 km/h 61% 0.0 mm 58 W/m2
20:35 28.8 °C 20.5 °C 1009.8 hPa WSW 1.4 km/h 3.2 km/h 61% 0.0 mm 62 W/m2
20:40 28.6 °C 20.6 °C 1009.8 hPa WSW 1.4 km/h 3.2 km/h 62% 0.0 mm 60 W/m2
20:45 28.3 °C 20.3 °C 1009.8 hPa WSW 1.4 km/h 1.6 km/h 62% 0.0 mm 54 W/m2
20:50 28.1 °C 20.1 °C 1009.8 hPa WSW 1.4 km/h 3.2 km/h 62% 0.0 mm 49 W/m2
20:55 27.9 °C 19.9 °C 1009.8 hPa WSW 3.2 km/h 3.2 km/h 62% 0.0 mm 35 W/m2
21:00 27.8 °C 19.8 °C 1009.8 hPa WSW 3.2 km/h 3.2 km/h 62% 0.0 mm 28 W/m2
21:05 27.6 °C 19.7 °C 1009.8 hPa WSW 3.2 km/h 3.2 km/h 62% 0.0 mm 21 W/m2
21:10 27.4 °C 19.5 °C 1009.8 hPa WSW 1.4 km/h 3.2 km/h 62% 0.0 mm 18 W/m2
21:15 27.2 °C 19.3 °C 1009.8 hPa Calm   3.2 km/h 62% 0.0 mm 14 W/m2
21:20 27 °C 19.1 °C 1009.8 hPa Calm     62% 0.0 mm 12 W/m2
21:25 26.9 °C 19.3 °C 1009.8 hPa Calm   1.6 km/h 63% 0.0 mm 9 W/m2
21:30 26.7 °C 18.8 °C 1009.8 hPa WSW 1.4 km/h 1.6 km/h 62% 0.0 mm 7 W/m2
21:35 26.5 °C 19.1 °C 1009.8 hPa Calm   1.6 km/h 64% 0.0 mm 5 W/m2
21:41 26.3 °C 18.9 °C 1010.2 hPa WSW 1.4 km/h 3.2 km/h 64% 0.0 mm 0 W/m2
21:46 26.1 °C 19 °C 1010.2 hPa Calm     65% 0.0 mm 0 W/m2
21:51 25.9 °C 18.8 °C 1010.2 hPa Calm   3.2 km/h 65% 0.0 mm 0 W/m2
21:56 25.7 °C 18.6 °C 1010.2 hPa Calm     65% 0.0 mm 0 W/m2
22:01 25.6 °C 18.8 °C 1010.2 hPa Calm     66% 0.0 mm 0 W/m2
22:06 25.4 °C 18.8 °C 1010.2 hPa Calm     67% 0.0 mm 0 W/m2
22:11 25.2 °C 18.6 °C 1010.2 hPa Calm     67% 0.0 mm 0 W/m2
22:16 25.1 °C 18.5 °C 1010.2 hPa Calm     67% 0.0 mm 0 W/m2
22:21 24.9 °C 18.6 °C 1010.2 hPa Calm     68% 0.0 mm 0 W/m2
22:26 24.8 °C 18.5 °C 1010.2 hPa Calm     68% 0.0 mm 0 W/m2
22:31 24.6 °C 18.5 °C 1010.2 hPa Calm     69% 0.0 mm 0 W/m2
22:36 24.5 °C 18.4 °C 1010.5 hPa Calm     69% 0.0 mm 0 W/m2
22:41 24.4 °C 18.3 °C 1010.5 hPa Calm     69% 0.0 mm 0 W/m2
22:46 24.2 °C 18.4 °C 1010.8 hPa Calm   1.6 km/h 70% 0.0 mm 0 W/m2
22:51 24.1 °C 18.3 °C 1010.8 hPa Calm     70% 0.0 mm 0 W/m2
22:56 24.1 °C 18.5 °C 1010.8 hPa Calm   1.6 km/h 71% 0.0 mm 0 W/m2
23:01 23.9 °C 18.3 °C 1010.8 hPa Calm     71% 0.0 mm 0 W/m2
23:06 23.8 °C 18.2 °C 1010.8 hPa Calm     71% 0.0 mm 0 W/m2
23:11 23.7 °C 18.4 °C 1010.8 hPa Calm     72% 0.0 mm 0 W/m2
23:16 23.7 °C 18.6 °C 1010.8 hPa Calm     73% 0.0 mm 0 W/m2
23:21 23.6 °C 18.5 °C 1010.8 hPa Calm     73% 0.0 mm 0 W/m2
23:26 23.4 °C 18.3 °C 1010.8 hPa Calm     73% 0.0 mm 0 W/m2
23:31 23.4 °C 18.1 °C 1010.8 hPa Calm     72% 0.0 mm 0 W/m2
23:36 23.3 °C 18 °C 1010.8 hPa Calm     72% 0.0 mm 0 W/m2
23:41 23.2 °C 18.1 °C 1010.8 hPa Calm     73% 0.0 mm 0 W/m2
23:46 23.1 °C 18.2 °C 1010.8 hPa Calm     74% 0.0 mm 0 W/m2
23:51 23 °C 18.1 °C 1010.8 hPa WSW 1.4 km/h 1.6 km/h 74% 0.0 mm 0 W/m2
23:56 22.9 °C 18 °C 1010.8 hPa Calm     74% 0.0 mm 0 W/m2
Juneau County Weather
Compliments of Weather Underground - 4 mb